createdAt,value
2017-05-03T00:01:38.393Z,69.30
2017-05-03T00:04:08.111Z,69.30
2017-05-03T00:06:37.735Z,69.30
2017-05-03T00:09:06.643Z,69.10
2017-05-03T00:11:35.565Z,68.70
2017-05-03T00:14:05.232Z,68.80
2017-05-03T00:16:34.158Z,68.90
2017-05-03T00:19:03.187Z,69.40
2017-05-03T00:21:32.076Z,69.00
2017-05-03T00:24:00.974Z,69.60
2017-05-03T00:26:29.924Z,69.60
2017-05-03T00:28:58.847Z,69.40
2017-05-03T00:31:28.506Z,69.30
2017-05-03T00:33:57.445Z,69.50
2017-05-03T00:36:27.106Z,69.30
2017-05-03T00:38:56.010Z,69.50
2017-05-03T00:41:24.973Z,69.60
2017-05-03T00:43:53.879Z,69.60
2017-05-03T00:46:22.774Z,69.30
2017-05-03T00:48:51.720Z,69.40
2017-05-03T00:51:20.629Z,70.00
2017-05-03T00:53:49.562Z,69.60
2017-05-03T00:56:18.494Z,69.30
2017-05-03T00:58:47.436Z,69.20
2017-05-03T01:01:16.356Z,68.90
2017-05-03T01:03:46.023Z,69.00
2017-05-03T01:06:14.909Z,69.40
2017-05-03T01:08:43.880Z,69.00
2017-05-03T01:11:12.787Z,69.10
2017-05-03T01:13:42.303Z,69.30
2017-05-03T01:16:11.342Z,69.60
2017-05-03T01:18:40.286Z,69.30
2017-05-03T01:21:09.203Z,68.70
2017-05-03T01:23:38.123Z,68.90
2017-05-03T01:26:07.049Z,68.80
2017-05-03T01:28:35.963Z,68.70
2017-05-03T01:31:04.882Z,68.60
2017-05-03T01:33:34.547Z,68.30
2017-05-03T01:36:03.456Z,68.80
2017-05-03T01:38:32.463Z,68.90
2017-05-03T01:41:02.126Z,68.80
2017-05-03T01:43:31.035Z,68.50
2017-05-03T01:45:59.954Z,69.10
2017-05-03T01:48:28.878Z,68.70
2017-05-03T01:50:57.817Z,68.60
2017-05-03T01:53:26.727Z,69.20
2017-05-03T01:55:55.786Z,69.30
2017-05-03T01:58:25.443Z,69.30
2017-05-03T02:00:54.357Z,69.80
2017-05-03T02:03:24.023Z,70.00
2017-05-03T02:05:52.983Z,70.20
2017-05-03T02:08:21.899Z,70.00
2017-05-03T02:10:50.803Z,69.90
2017-05-03T02:13:19.740Z,70.00
2017-05-03T02:15:49.419Z,70.00
2017-05-03T02:18:18.318Z,69.70
2017-05-03T02:20:47.415Z,69.90
2017-05-03T02:23:16.494Z,69.70
2017-05-03T02:25:45.430Z,69.90
2017-05-03T02:28:15.083Z,69.70
2017-05-03T02:30:44.822Z,69.90
2017-05-03T02:33:13.741Z,69.50
2017-05-03T02:35:43.486Z,69.50
2017-05-03T02:38:12.418Z,69.40
2017-05-03T02:40:41.332Z,70.00
2017-05-03T02:43:10.982Z,68.70
2017-05-03T02:45:39.911Z,68.70
2017-05-03T02:48:08.825Z,68.90
2017-05-03T02:50:37.760Z,68.50
2017-05-03T02:53:06.678Z,68.50
2017-05-03T02:55:36.404Z,68.40
2017-05-03T02:58:06.038Z,68.60
2017-05-03T03:00:34.958Z,68.80
2017-05-03T03:03:04.685Z,69.50
2017-05-03T03:05:34.352Z,69.90
2017-05-03T03:08:03.243Z,69.90
2017-05-03T03:10:32.167Z,70.30
2017-05-03T03:13:01.818Z,70.10
2017-05-03T03:15:30.791Z,70.20
2017-05-03T03:18:00.467Z,70.50
2017-05-03T03:20:29.397Z,70.80
2017-05-03T03:22:58.307Z,70.60
2017-05-03T03:25:27.230Z,70.40
2017-05-03T03:27:56.167Z,70.70
2017-05-03T03:30:25.789Z,70.60
2017-05-03T03:32:54.713Z,70.90
2017-05-03T03:35:23.679Z,70.90
2017-05-03T03:37:52.595Z,70.40
2017-05-03T03:40:21.502Z,70.20
2017-05-03T03:42:50.570Z,70.30
2017-05-03T03:45:19.478Z,70.00
2017-05-03T03:47:48.395Z,70.20
2017-05-03T03:50:17.328Z,69.50
2017-05-03T03:52:46.234Z,69.80
2017-05-03T03:55:15.310Z,69.40
2017-05-03T03:57:44.195Z,69.50
2017-05-03T04:00:13.108Z,69.50
2017-05-03T04:02:42.045Z,69.10
2017-05-03T04:05:10.934Z,69.20
2017-05-03T04:07:39.857Z,69.20
2017-05-03T04:10:08.771Z,69.10
2017-05-03T04:12:37.682Z,69.40
2017-05-03T04:15:06.614Z,69.30
2017-05-03T04:17:36.250Z,69.50
2017-05-03T04:20:05.250Z,69.40
2017-05-03T04:22:34.187Z,69.50
2017-05-03T04:25:03.086Z,69.50
2017-05-03T04:27:32.014Z,69.60
2017-05-03T04:30:00.946Z,69.40
2017-05-03T04:32:29.840Z,69.40
2017-05-03T04:34:58.750Z,69.30
2017-05-03T04:37:27.686Z,69.20
2017-05-03T04:39:56.659Z,68.90
2017-05-03T04:42:26.471Z,69.10
2017-05-03T04:44:56.130Z,68.40
2017-05-03T04:47:25.039Z,68.20
2017-05-03T04:49:53.957Z,68.40
2017-05-03T04:52:23.666Z,68.70
2017-05-03T04:54:52.562Z,68.60
2017-05-03T04:57:21.499Z,69.20
2017-05-03T04:59:50.401Z,69.00
2017-05-03T05:02:19.382Z,69.00
2017-05-03T05:04:48.279Z,68.80
2017-05-03T05:07:17.210Z,68.70
2017-05-03T05:09:46.155Z,68.10
2017-05-03T05:12:15.093Z,67.90
2017-05-03T05:14:44.818Z,68.00
2017-05-03T05:17:13.714Z,68.30
2017-05-03T05:19:42.623Z,67.80
2017-05-03T05:22:11.584Z,68.30
2017-05-03T05:24:40.598Z,68.80
2017-05-03T05:27:09.502Z,67.90
2017-05-03T05:29:38.427Z,68.20
2017-05-03T05:32:07.991Z,68.20
2017-05-03T05:34:36.887Z,67.70
2017-05-03T05:37:06.738Z,68.50
2017-05-03T05:39:35.695Z,67.90
2017-05-03T05:42:05.273Z,68.20
2017-05-03T05:44:34.205Z,67.50
2017-05-03T05:47:03.143Z,67.90
2017-05-03T05:49:32.787Z,66.90
2017-05-03T05:52:01.706Z,67.90
2017-05-03T05:54:30.623Z,68.50
2017-05-03T05:57:00.266Z,68.20
2017-05-03T05:59:29.179Z,67.60
2017-05-03T06:01:58.151Z,66.70
2017-05-03T06:04:27.180Z,67.00
2017-05-03T06:06:56.183Z,65.40
2017-05-03T06:09:25.112Z,65.80
2017-05-03T06:11:54.797Z,65.90
2017-05-03T06:14:24.484Z,65.50
2017-05-03T06:16:54.417Z,65.80
2017-05-03T06:19:24.089Z,63.00
2017-05-03T06:21:52.989Z,64.50
2017-05-03T06:24:21.938Z,64.50
2017-05-03T06:26:50.883Z,65.60
2017-05-03T06:29:19.806Z,66.50
2017-05-03T06:31:49.471Z,65.20
2017-05-03T06:34:18.469Z,64.90
2017-05-03T06:36:47.436Z,65.00
2017-05-03T06:39:16.967Z,66.10
2017-05-03T06:41:45.910Z,64.80
2017-05-03T06:44:14.859Z,64.60
2017-05-03T06:46:43.788Z,62.50
2017-05-03T06:51:42.106Z,61.80
2017-05-03T06:54:11.049Z,64.60
2017-05-03T06:56:39.971Z,62.30
2017-05-03T06:59:08.870Z,65.00
2017-05-03T07:01:38.775Z,64.10
2017-05-03T07:04:07.716Z,66.10
2017-05-03T07:06:36.673Z,64.20
2017-05-03T07:09:05.562Z,63.80
2017-05-03T07:11:34.486Z,62.90
2017-05-03T07:14:03.395Z,62.00
2017-05-03T07:16:32.296Z,61.00
2017-05-03T07:19:01.942Z,60.50
2017-05-03T07:21:30.858Z,61.20
2017-05-03T07:23:59.755Z,59.30
2017-05-03T07:26:28.671Z,59.00
2017-05-03T07:28:57.586Z,57.60
2017-05-03T07:31:27.235Z,59.00
2017-05-03T07:33:56.142Z,59.90
2017-05-03T07:36:25.183Z,58.70
2017-05-03T07:38:54.347Z,58.10
2017-05-03T07:41:23.219Z,61.60
2017-05-03T07:43:52.138Z,58.90
2017-05-03T07:46:21.770Z,59.30
2017-05-03T07:48:50.679Z,58.20
2017-05-03T07:51:19.602Z,57.80
2017-05-03T07:53:48.515Z,56.90
2017-05-03T07:56:17.719Z,56.90
2017-05-03T07:58:46.772Z,56.60
2017-05-03T08:01:15.656Z,56.60
2017-05-03T08:03:44.571Z,55.10
2017-05-03T08:06:13.484Z,56.00
2017-05-03T08:08:42.366Z,54.40
2017-05-03T08:11:11.237Z,52.70
2017-05-03T08:13:40.169Z,53.30
2017-05-03T08:16:09.089Z,51.60
2017-05-03T08:18:37.990Z,51.30
2017-05-03T08:21:06.910Z,51.80
2017-05-03T08:23:35.837Z,52.50
2017-05-03T08:26:05.473Z,52.80
2017-05-03T08:28:34.411Z,53.20
2017-05-03T08:31:03.351Z,51.40
2017-05-03T08:33:32.254Z,50.90
2017-05-03T08:36:01.183Z,49.90
2017-05-03T08:38:30.065Z,50.00
2017-05-03T08:40:58.997Z,50.60
2017-05-03T08:43:28.657Z,48.50
2017-05-03T08:45:57.598Z,48.50
2017-05-03T08:48:27.990Z,48.20
2017-05-03T08:50:57.679Z,46.90
2017-05-03T08:53:27.334Z,42.80
2017-05-03T08:55:56.238Z,45.60
2017-05-03T08:58:25.151Z,45.90
2017-05-03T09:00:54.051Z,46.30
2017-05-03T09:03:22.953Z,46.60
2017-05-03T09:05:51.867Z,46.60
2017-05-03T09:08:21.513Z,46.90
2017-05-03T09:10:50.488Z,47.60
2017-05-03T09:13:19.391Z,46.70
2017-05-03T09:15:48.303Z,46.70
2017-05-03T09:18:17.221Z,47.00
2017-05-03T09:20:46.195Z,46.60
2017-05-03T09:23:15.164Z,47.30
2017-05-03T09:25:44.867Z,46.00
2017-05-03T09:28:13.779Z,45.80
2017-05-03T09:30:44.577Z,45.00
2017-05-03T09:33:13.597Z,42.50
2017-05-03T09:35:42.971Z,39.90
2017-05-03T09:38:11.883Z,39.10
2017-05-03T09:40:40.809Z,37.50
2017-05-03T09:43:09.736Z,36.70
2017-05-03T09:45:39.450Z,36.60
2017-05-03T09:48:09.117Z,37.90
2017-05-03T09:50:41.341Z,40.00
2017-05-03T09:53:10.247Z,38.40
2017-05-03T09:55:39.158Z,39.10
2017-05-03T09:58:08.062Z,39.40
2017-05-03T10:00:36.993Z,39.00
2017-05-03T10:03:07.181Z,40.50
2017-05-03T10:05:36.115Z,41.00
2017-05-03T10:08:05.022Z,42.10
2017-05-03T10:10:33.921Z,42.60
2017-05-03T10:13:02.995Z,43.20
2017-05-03T10:15:31.915Z,45.90
2017-05-03T10:18:00.838Z,46.10
2017-05-03T10:20:29.743Z,47.10
2017-05-03T10:22:59.510Z,47.80
2017-05-03T10:25:28.426Z,48.30
2017-05-03T10:27:57.321Z,49.20
2017-05-03T10:30:26.266Z,50.00
2017-05-03T10:32:55.250Z,49.70
2017-05-03T10:35:24.146Z,49.80
2017-05-03T10:37:53.093Z,48.70
2017-05-03T10:40:22.774Z,44.90
2017-05-03T10:42:52.213Z,41.70
2017-05-03T10:45:21.125Z,36.90
2017-05-03T10:47:50.030Z,34.00
2017-05-03T10:50:18.964Z,32.00
2017-05-03T10:52:47.927Z,31.40
2017-05-03T10:55:17.682Z,28.70
2017-05-03T10:57:47.421Z,28.20
2017-05-03T13:01:33.678Z,45.70
2017-05-03T13:04:02.586Z,45.00
2017-05-03T13:06:31.513Z,43.70
2017-05-03T13:09:00.609Z,43.40
2017-05-03T13:11:29.550Z,44.20
2017-05-03T13:13:58.434Z,44.10
2017-05-03T13:16:27.977Z,43.20
2017-05-03T13:18:56.906Z,43.80
2017-05-03T13:21:25.834Z,44.10
2017-05-03T13:23:55.518Z,43.70
2017-05-03T13:26:24.423Z,43.90
2017-05-03T13:28:53.348Z,43.30
2017-05-03T13:31:23.041Z,41.90
2017-05-03T13:33:51.925Z,41.60
2017-05-03T13:36:21.583Z,40.80
2017-05-03T13:38:50.499Z,41.30
2017-05-03T13:41:19.393Z,41.90
2017-05-03T13:43:49.050Z,42.60
2017-05-03T13:46:17.976Z,43.90
2017-05-03T13:48:47.558Z,45.70
2017-05-03T13:51:16.518Z,47.10
2017-05-03T13:53:45.490Z,49.70
2017-05-03T13:56:15.154Z,52.00
2017-05-03T13:58:44.521Z,54.20
2017-05-03T14:01:13.567Z,55.30
2017-05-03T14:03:42.466Z,57.90
2017-05-03T14:06:12.114Z,59.10
2017-05-03T14:08:41.034Z,60.50
2017-05-03T14:11:09.946Z,62.40
2017-05-03T14:13:38.874Z,64.60
2017-05-03T14:16:07.941Z,66.70
2017-05-03T14:18:37.059Z,67.00
2017-05-03T14:21:06.275Z,64.60
2017-05-03T14:23:35.273Z,67.60
2017-05-03T14:26:04.323Z,67.80
2017-05-03T14:28:33.272Z,68.10
2017-05-03T14:31:02.284Z,70.30
2017-05-03T14:33:31.306Z,69.50
2017-05-03T14:36:01.438Z,68.60
2017-05-03T14:38:31.291Z,69.80
2017-05-03T14:41:00.537Z,68.40
2017-05-03T14:43:31.701Z,69.60
2017-05-03T14:46:00.937Z,69.80
2017-05-03T14:50:59.897Z,70.00
2017-05-03T14:53:28.819Z,71.40
2017-05-03T14:55:57.751Z,71.10
2017-05-03T14:58:26.687Z,71.60
2017-05-03T15:00:55.590Z,73.10
2017-05-03T15:03:25.083Z,72.20
2017-05-03T15:05:54.003Z,73.10
2017-05-03T15:08:23.565Z,73.60
2017-05-03T15:10:52.559Z,75.10
2017-05-03T15:13:21.503Z,76.40
2017-05-03T15:15:50.470Z,75.60
2017-05-03T15:18:19.382Z,73.30
2017-05-03T15:20:48.323Z,71.70
2017-05-03T15:23:17.253Z,71.10
2017-05-03T15:25:46.166Z,69.60
2017-05-03T15:28:15.074Z,71.80
2017-05-03T15:30:44.767Z,72.40
2017-05-03T15:33:13.698Z,71.70
2017-05-03T15:35:43.357Z,70.60
2017-05-03T15:38:12.314Z,72.60
2017-05-03T15:40:41.417Z,73.10
2017-05-03T15:43:10.352Z,73.00
2017-05-03T15:45:39.462Z,72.50
2017-05-03T15:48:09.171Z,71.80
2017-05-03T15:50:38.079Z,72.40
2017-05-03T15:53:07.002Z,70.80
2017-05-03T15:55:35.923Z,69.60
2017-05-03T15:58:04.846Z,68.80
2017-05-03T16:00:33.774Z,70.20
2017-05-03T16:03:02.975Z,70.30
2017-05-03T16:05:31.902Z,72.00
2017-05-03T16:08:00.844Z,72.00
2017-05-03T16:10:30.508Z,70.80
2017-05-03T16:12:59.409Z,70.60
2017-05-03T16:15:28.335Z,70.30
2017-05-03T16:17:57.942Z,69.70
2017-05-03T16:20:27.602Z,69.70
2017-05-03T16:22:56.511Z,68.70
2017-05-03T16:25:25.507Z,69.60
2017-05-03T16:27:54.456Z,69.10
2017-05-03T16:30:23.388Z,70.60
2017-05-03T16:32:52.330Z,71.00
2017-05-03T16:35:21.238Z,71.20
2017-05-03T16:37:50.189Z,71.00
2017-05-03T16:40:19.143Z,70.70
2017-05-03T16:42:48.050Z,70.00
2017-05-03T16:55:01.978Z,73.70
2017-05-03T16:57:31.649Z,73.40
2017-05-03T17:00:01.436Z,72.90
2017-05-03T17:02:30.414Z,72.90
2017-05-03T17:04:59.362Z,72.10
2017-05-03T17:07:28.286Z,72.40
2017-05-03T17:09:58.115Z,71.60
2017-05-03T17:12:27.029Z,71.60
2017-05-03T17:14:55.986Z,71.10
2017-05-03T17:17:24.954Z,70.90
2017-05-03T17:19:54.613Z,71.10
2017-05-03T17:22:23.535Z,70.30
2017-05-03T17:24:53.344Z,70.40
2017-05-03T17:27:22.253Z,70.20
2017-05-03T17:29:51.926Z,70.40
2017-05-03T17:32:20.858Z,71.20
2017-05-03T17:34:51.389Z,71.20
2017-05-03T17:37:20.311Z,71.10
2017-05-03T17:39:49.244Z,70.90
2017-05-03T17:42:18.131Z,70.90
2017-05-03T17:44:47.072Z,69.10
2017-05-03T17:47:16.799Z,70.50
2017-05-03T17:49:45.777Z,70.30
2017-05-03T17:52:14.712Z,72.30
2017-05-03T17:54:43.618Z,71.40
2017-05-03T17:57:12.714Z,71.10
2017-05-03T17:59:41.651Z,71.80
2017-05-03T18:02:10.638Z,72.20
2017-05-03T18:04:39.655Z,72.20
2017-05-03T18:07:08.618Z,71.70
2017-05-03T18:09:37.529Z,70.10
2017-05-03T18:12:06.495Z,70.70
2017-05-03T18:14:36.152Z,69.50
2017-05-03T18:17:05.061Z,70.30
2017-05-03T18:19:34.102Z,70.20
2017-05-03T18:22:03.016Z,69.80
2017-05-03T18:24:31.966Z,70.10
2017-05-03T18:27:00.903Z,70.20
2017-05-03T18:29:29.958Z,69.80
2017-05-03T18:31:58.861Z,69.90
2017-05-03T18:34:27.812Z,69.20
2017-05-03T18:36:56.736Z,68.50
2017-05-03T18:39:27.252Z,68.70
2017-05-03T18:41:57.010Z,69.00
2017-05-03T18:44:25.896Z,69.40
2017-05-03T18:46:54.843Z,68.80
2017-05-03T18:51:53.121Z,68.40
2017-05-03T18:54:22.839Z,68.60
2017-05-03T18:56:52.948Z,68.10
2017-05-03T18:59:21.896Z,68.00
2017-05-03T19:01:52.436Z,68.20
2017-05-03T19:04:21.435Z,68.60
2017-05-03T19:06:50.417Z,68.20
2017-05-03T19:09:19.315Z,68.30
2017-05-03T19:11:48.303Z,68.60
2017-05-03T19:14:17.263Z,68.40
2017-05-03T19:16:46.932Z,68.10
2017-05-03T19:19:15.953Z,68.40
2017-05-03T19:21:44.832Z,67.60
2017-05-03T19:24:13.764Z,68.10
2017-05-03T19:26:43.432Z,68.30
2017-05-03T19:29:12.383Z,68.50
2017-05-03T19:31:42.026Z,68.90
2017-05-03T19:34:11.024Z,68.30
2017-05-03T19:36:39.972Z,68.30
2017-05-03T19:39:09.611Z,68.50
2017-05-03T19:41:38.584Z,68.20
2017-05-03T19:44:07.506Z,68.80
2017-05-03T19:46:36.417Z,68.90
2017-05-03T19:49:05.447Z,68.90
2017-05-03T19:51:35.104Z,69.10
2017-05-03T19:54:04.817Z,68.80
2017-05-03T19:56:33.753Z,68.60
2017-05-03T19:59:02.676Z,68.10
2017-05-03T20:01:31.639Z,68.00
2017-05-03T20:04:00.547Z,68.90
2017-05-03T20:06:29.500Z,68.60
2017-05-03T20:08:59.198Z,68.50
2017-05-03T20:11:28.859Z,69.00
2017-05-03T20:13:57.794Z,68.80
2017-05-03T20:16:27.479Z,68.70
2017-05-03T20:18:56.399Z,68.80
2017-05-03T20:21:26.039Z,69.00
2017-05-03T20:23:54.978Z,69.20
2017-05-03T20:26:23.938Z,69.10
2017-05-03T20:28:52.847Z,68.80
2017-05-03T20:31:21.790Z,68.70
2017-05-03T20:33:50.785Z,68.90
2017-05-03T20:36:20.436Z,68.50
2017-05-03T20:38:49.351Z,68.30
2017-05-03T20:41:18.279Z,68.60
2017-05-03T20:43:47.210Z,68.60
2017-05-03T20:46:16.172Z,68.60
2017-05-03T20:48:45.065Z,68.90
2017-05-03T20:51:14.009Z,68.50
2017-05-03T20:53:42.921Z,68.50
2017-05-03T20:56:12.669Z,68.50
2017-05-03T20:58:41.625Z,68.30
2017-05-03T21:01:11.284Z,68.40
2017-05-03T21:03:40.869Z,68.60
2017-05-03T21:06:09.785Z,69.10
2017-05-03T21:08:38.750Z,69.60
2017-05-03T21:11:07.657Z,69.80
2017-05-03T21:13:36.602Z,69.90
2017-05-03T21:16:05.518Z,70.30
2017-05-03T21:18:34.557Z,70.30
2017-05-03T21:21:03.484Z,70.00
2017-05-03T21:23:32.419Z,70.20
2017-05-03T21:26:01.339Z,70.40
2017-05-03T21:28:30.470Z,70.00
2017-05-03T21:31:00.141Z,69.90
2017-05-03T21:33:29.033Z,69.90
2017-05-03T21:35:58.702Z,70.10
2017-05-03T21:38:27.603Z,69.80
2017-05-03T21:40:56.584Z,69.50
2017-05-03T21:43:25.530Z,69.30
2017-05-03T21:45:55.186Z,69.50
2017-05-03T21:48:24.093Z,69.10
2017-05-03T21:50:53.051Z,69.30
2017-05-03T21:53:21.974Z,68.80
2017-05-03T21:55:50.876Z,69.20
2017-05-03T21:58:20.526Z,69.70
2017-05-03T22:00:49.472Z,69.70
2017-05-03T22:03:18.371Z,69.50
2017-05-03T22:05:47.359Z,69.20
2017-05-03T22:08:16.338Z,69.20
2017-05-03T22:10:45.310Z,69.20
2017-05-03T22:13:14.222Z,69.20
2017-05-03T22:15:43.163Z,69.30
2017-05-03T22:18:13.095Z,69.00
2017-05-03T22:20:42.020Z,68.80
2017-05-03T22:23:10.973Z,68.80
2017-05-03T22:25:39.874Z,68.90
2017-05-03T22:28:08.876Z,68.90
2017-05-03T22:30:37.811Z,69.20
2017-05-03T22:33:07.480Z,69.20
2017-05-03T22:35:36.414Z,68.50
2017-05-03T22:38:06.069Z,68.30
2017-05-03T22:40:35.003Z,69.20
2017-05-03T22:43:03.983Z,68.90
2017-05-03T22:45:32.894Z,69.10
2017-05-03T22:48:02.554Z,69.00
2017-05-03T22:50:31.497Z,68.50
2017-05-03T22:53:00.379Z,68.70
2017-05-03T22:55:29.295Z,68.50
2017-05-03T22:57:58.983Z,68.40
2017-05-03T23:00:27.902Z,69.10
2017-05-03T23:02:56.803Z,69.00
2017-05-03T23:05:25.738Z,68.70
2017-05-03T23:07:54.666Z,68.90
2017-05-03T23:10:24.349Z,68.80
2017-05-03T23:12:53.290Z,69.00
2017-05-03T23:15:22.199Z,69.00
2017-05-03T23:17:51.178Z,69.70
2017-05-03T23:20:20.111Z,68.90
2017-05-03T23:22:49.014Z,69.20
2017-05-03T23:25:18.675Z,69.10
2017-05-03T23:27:47.633Z,69.20
2017-05-03T23:30:16.542Z,69.00
2017-05-03T23:32:45.555Z,68.90
2017-05-03T23:35:14.493Z,68.80
2017-05-03T23:37:44.137Z,68.80
2017-05-03T23:40:13.040Z,69.00
2017-05-03T23:42:41.969Z,69.00
2017-05-03T23:45:10.882Z,68.70
2017-05-03T23:47:40.553Z,68.80
2017-05-03T23:50:09.455Z,68.80
2017-05-03T23:52:38.354Z,68.50
2017-05-03T23:55:08.050Z,68.50
2017-05-03T23:57:36.950Z,68.50
